sensor_id;sensor_type;location;lat;lon;timestamp;P1;durP1;ratioP1;P2;durP2;ratioP2
9382;SDS011;4731;49.708;10.816;2023-09-08T00:02:09;0.50;;;0.50;;
9382;SDS011;4731;49.708;10.816;2023-09-08T00:04:36;0.67;;;0.67;;
9382;SDS011;4731;49.708;10.816;2023-09-08T00:07:03;0.30;;;0.30;;
9382;SDS011;4731;49.708;10.816;2023-09-08T00:09:30;0.20;;;0.20;;
9382;SDS011;4731;49.708;10.816;2023-09-08T00:11:58;0.10;;;0.10;;
9382;SDS011;4731;49.708;10.816;2023-09-08T00:14:25;0.23;;;0.23;;
9382;SDS011;4731;49.708;10.816;2023-09-08T00:16:51;0.20;;;0.20;;
9382;SDS011;4731;49.708;10.816;2023-09-08T00:19:19;0.20;;;0.20;;
9382;SDS011;4731;49.708;10.816;2023-09-08T00:21:46;0.30;;;0.30;;
9382;SDS011;4731;49.708;10.816;2023-09-08T00:24:14;0.70;;;0.70;;
9382;SDS011;4731;49.708;10.816;2023-09-08T00:26:41;0.20;;;0.20;;
9382;SDS011;4731;49.708;10.816;2023-09-08T00:29:09;0.43;;;0.43;;
9382;SDS011;4731;49.708;10.816;2023-09-08T00:31:35;0.30;;;0.30;;
9382;SDS011;4731;49.708;10.816;2023-09-08T00:34:02;0.90;;;0.50;;
9382;SDS011;4731;49.708;10.816;2023-09-08T00:36:29;0.30;;;0.30;;
9382;SDS011;4731;49.708;10.816;2023-09-08T00:38:55;0.20;;;0.20;;
9382;SDS011;4731;49.708;10.816;2023-09-08T00:41:22;0.50;;;0.50;;
9382;SDS011;4731;49.708;10.816;2023-09-08T00:43:49;0.20;;;0.20;;
9382;SDS011;4731;49.708;10.816;2023-09-08T00:46:17;0.50;;;0.50;;
9382;SDS011;4731;49.708;10.816;2023-09-08T00:48:44;0.10;;;0.10;;
9382;SDS011;4731;49.708;10.816;2023-09-08T00:51:11;0.37;;;0.37;;
9382;SDS011;4731;49.708;10.816;2023-09-08T00:53:38;0.20;;;0.20;;
9382;SDS011;4731;49.708;10.816;2023-09-08T00:56:05;0.30;;;0.30;;
9382;SDS011;4731;49.708;10.816;2023-09-08T00:58:34;0.20;;;0.20;;
9382;SDS011;4731;49.708;10.816;2023-09-08T01:01:01;0.20;;;0.20;;
9382;SDS011;4731;49.708;10.816;2023-09-08T01:03:30;0.10;;;0.10;;
9382;SDS011;4731;49.708;10.816;2023-09-08T01:05:57;0.27;;;0.27;;
9382;SDS011;4731;49.708;10.816;2023-09-08T01:08:24;0.17;;;0.17;;
9382;SDS011;4731;49.708;10.816;2023-09-08T01:10:52;0.20;;;0.20;;
9382;SDS011;4731;49.708;10.816;2023-09-08T01:13:19;0.20;;;0.20;;
9382;SDS011;4731;49.708;10.816;2023-09-08T01:15:46;0.10;;;0.10;;
9382;SDS011;4731;49.708;10.816;2023-09-08T01:18:13;0.20;;;0.20;;
9382;SDS011;4731;49.708;10.816;2023-09-08T01:20:46;0.17;;;0.17;;
9382;SDS011;4731;49.708;10.816;2023-09-08T01:23:28;0.00;;;0.00;;
9382;SDS011;4731;49.708;10.816;2023-09-08T01:26:09;0.30;;;0.30;;
9382;SDS011;4731;49.708;10.816;2023-09-08T01:28:40;0.20;;;0.20;;
9382;SDS011;4731;49.708;10.816;2023-09-08T01:31:08;0.73;;;0.73;;
9382;SDS011;4731;49.708;10.816;2023-09-08T01:33:35;0.40;;;0.40;;
9382;SDS011;4731;49.708;10.816;2023-09-08T01:36:02;0.10;;;0.10;;
9382;SDS011;4731;49.708;10.816;2023-09-08T01:38:29;0.10;;;0.10;;
9382;SDS011;4731;49.708;10.816;2023-09-08T01:40:56;0.13;;;0.13;;
9382;SDS011;4731;49.708;10.816;2023-09-08T01:43:24;0.20;;;0.20;;
9382;SDS011;4731;49.708;10.816;2023-09-08T01:45:51;0.00;;;0.00;;
9382;SDS011;4731;49.708;10.816;2023-09-08T01:48:18;0.47;;;0.40;;
9382;SDS011;4731;49.708;10.816;2023-09-08T01:50:44;0.40;;;0.40;;
9382;SDS011;4731;49.708;10.816;2023-09-08T01:53:13;0.67;;;0.67;;
9382;SDS011;4731;49.708;10.816;2023-09-08T01:55:40;0.37;;;0.37;;
9382;SDS011;4731;49.708;10.816;2023-09-08T01:58:06;0.17;;;0.17;;
9382;SDS011;4731;49.708;10.816;2023-09-08T02:00:34;0.43;;;0.43;;
9382;SDS011;4731;49.708;10.816;2023-09-08T02:03:01;0.20;;;0.20;;
9382;SDS011;4731;49.708;10.816;2023-09-08T02:05:28;0.20;;;0.20;;
9382;SDS011;4731;49.708;10.816;2023-09-08T02:07:55;0.40;;;0.40;;
9382;SDS011;4731;49.708;10.816;2023-09-08T02:10:22;0.00;;;0.00;;
9382;SDS011;4731;49.708;10.816;2023-09-08T02:12:49;0.03;;;0.03;;
9382;SDS011;4731;49.708;10.816;2023-09-08T02:15:15;0.23;;;0.23;;
9382;SDS011;4731;49.708;10.816;2023-09-08T02:17:44;0.10;;;0.10;;
9382;SDS011;4731;49.708;10.816;2023-09-08T02:20:11;0.10;;;0.10;;
9382;SDS011;4731;49.708;10.816;2023-09-08T02:22:38;0.10;;;0.10;;
9382;SDS011;4731;49.708;10.816;2023-09-08T02:25:05;0.30;;;0.30;;
9382;SDS011;4731;49.708;10.816;2023-09-08T02:27:32;0.30;;;0.30;;
9382;SDS011;4731;49.708;10.816;2023-09-08T02:29:59;0.20;;;0.20;;
9382;SDS011;4731;49.708;10.816;2023-09-08T02:32:25;0.47;;;0.40;;
9382;SDS011;4731;49.708;10.816;2023-09-08T02:34:53;0.10;;;0.10;;
9382;SDS011;4731;49.708;10.816;2023-09-08T02:37:20;0.30;;;0.30;;
9382;SDS011;4731;49.708;10.816;2023-09-08T02:39:47;0.93;;;0.93;;
9382;SDS011;4731;49.708;10.816;2023-09-08T02:42:14;0.30;;;0.30;;
9382;SDS011;4731;49.708;10.816;2023-09-08T02:44:41;0.20;;;0.20;;
9382;SDS011;4731;49.708;10.816;2023-09-08T02:47:09;0.30;;;0.30;;
9382;SDS011;4731;49.708;10.816;2023-09-08T02:49:36;0.10;;;0.10;;
9382;SDS011;4731;49.708;10.816;2023-09-08T02:52:04;0.07;;;0.07;;
9382;SDS011;4731;49.708;10.816;2023-09-08T02:54:31;0.37;;;0.37;;
9382;SDS011;4731;49.708;10.816;2023-09-08T02:56:58;0.20;;;0.20;;
9382;SDS011;4731;49.708;10.816;2023-09-08T02:59:25;0.30;;;0.30;;
9382;SDS011;4731;49.708;10.816;2023-09-08T03:01:51;0.13;;;0.13;;
9382;SDS011;4731;49.708;10.816;2023-09-08T03:04:18;0.03;;;0.03;;
9382;SDS011;4731;49.708;10.816;2023-09-08T03:06:45;0.10;;;0.10;;
9382;SDS011;4731;49.708;10.816;2023-09-08T03:09:13;0.37;;;0.37;;
9382;SDS011;4731;49.708;10.816;2023-09-08T03:11:41;0.23;;;0.23;;
9382;SDS011;4731;49.708;10.816;2023-09-08T03:14:07;0.10;;;0.10;;
9382;SDS011;4731;49.708;10.816;2023-09-08T03:16:34;0.10;;;0.10;;
9382;SDS011;4731;49.708;10.816;2023-09-08T03:19:01;0.10;;;0.10;;
9382;SDS011;4731;49.708;10.816;2023-09-08T03:21:27;0.20;;;0.20;;
9382;SDS011;4731;49.708;10.816;2023-09-08T03:23:54;1.60;;;0.93;;
9382;SDS011;4731;49.708;10.816;2023-09-08T03:26:22;1.17;;;0.30;;
9382;SDS011;4731;49.708;10.816;2023-09-08T03:28:49;0.30;;;0.30;;
9382;SDS011;4731;49.708;10.816;2023-09-08T03:31:16;0.07;;;0.07;;
9382;SDS011;4731;49.708;10.816;2023-09-08T03:33:43;0.07;;;0.07;;
9382;SDS011;4731;49.708;10.816;2023-09-08T03:36:08;0.10;;;0.10;;
9382;SDS011;4731;49.708;10.816;2023-09-08T03:38:35;0.20;;;0.20;;
9382;SDS011;4731;49.708;10.816;2023-09-08T03:41:03;0.10;;;0.10;;
9382;SDS011;4731;49.708;10.816;2023-09-08T03:43:31;0.00;;;0.00;;
9382;SDS011;4731;49.708;10.816;2023-09-08T03:45:57;0.40;;;0.40;;
9382;SDS011;4731;49.708;10.816;2023-09-08T03:48:24;1.00;;;0.43;;
9382;SDS011;4731;49.708;10.816;2023-09-08T03:50:51;0.27;;;0.27;;
9382;SDS011;4731;49.708;10.816;2023-09-08T03:53:18;0.20;;;0.20;;
9382;SDS011;4731;49.708;10.816;2023-09-08T03:55:44;0.10;;;0.10;;
9382;SDS011;4731;49.708;10.816;2023-09-08T03:58:11;0.27;;;0.27;;
9382;SDS011;4731;49.708;10.816;2023-09-08T04:00:39;0.40;;;0.40;;
9382;SDS011;4731;49.708;10.816;2023-09-08T04:03:06;0.13;;;0.13;;
9382;SDS011;4731;49.708;10.816;2023-09-08T04:05:33;0.10;;;0.10;;
9382;SDS011;4731;49.708;10.816;2023-09-08T04:07:59;0.30;;;0.30;;
9382;SDS011;4731;49.708;10.816;2023-09-08T04:10:26;0.30;;;0.30;;
9382;SDS011;4731;49.708;10.816;2023-09-08T04:12:53;0.10;;;0.10;;
9382;SDS011;4731;49.708;10.816;2023-09-08T04:15:20;0.00;;;0.00;;
9382;SDS011;4731;49.708;10.816;2023-09-08T04:17:48;0.10;;;0.10;;
9382;SDS011;4731;49.708;10.816;2023-09-08T04:20:15;0.23;;;0.23;;
9382;SDS011;4731;49.708;10.816;2023-09-08T04:22:42;0.43;;;0.43;;
9382;SDS011;4731;49.708;10.816;2023-09-08T04:25:09;0.30;;;0.30;;
9382;SDS011;4731;49.708;10.816;2023-09-08T04:27:36;0.20;;;0.20;;
9382;SDS011;4731;49.708;10.816;2023-09-08T04:30:03;0.10;;;0.10;;
9382;SDS011;4731;49.708;10.816;2023-09-08T04:32:30;0.20;;;0.20;;
9382;SDS011;4731;49.708;10.816;2023-09-08T04:34:58;0.40;;;0.40;;
9382;SDS011;4731;49.708;10.816;2023-09-08T04:37:25;0.10;;;0.10;;
9382;SDS011;4731;49.708;10.816;2023-09-08T04:39:52;0.20;;;0.20;;
9382;SDS011;4731;49.708;10.816;2023-09-08T04:42:19;0.40;;;0.40;;
9382;SDS011;4731;49.708;10.816;2023-09-08T04:44:45;0.20;;;0.20;;
9382;SDS011;4731;49.708;10.816;2023-09-08T04:47:12;0.20;;;0.20;;
9382;SDS011;4731;49.708;10.816;2023-09-08T04:49:39;0.47;;;0.47;;
9382;SDS011;4731;49.708;10.816;2023-09-08T04:52:07;0.10;;;0.10;;
9382;SDS011;4731;49.708;10.816;2023-09-08T04:54:36;0.10;;;0.10;;
9382;SDS011;4731;49.708;10.816;2023-09-08T04:57:03;0.00;;;0.00;;
9382;SDS011;4731;49.708;10.816;2023-09-08T04:59:30;0.10;;;0.10;;
9382;SDS011;4731;49.708;10.816;2023-09-08T05:01:57;0.20;;;0.20;;
9382;SDS011;4731;49.708;10.816;2023-09-08T05:04:24;0.80;;;0.80;;
9382;SDS011;4731;49.708;10.816;2023-09-08T05:06:51;0.20;;;0.20;;
9382;SDS011;4731;49.708;10.816;2023-09-08T05:09:19;0.10;;;0.10;;
9382;SDS011;4731;49.708;10.816;2023-09-08T05:11:46;0.10;;;0.10;;
9382;SDS011;4731;49.708;10.816;2023-09-08T05:14:13;0.27;;;0.27;;
9382;SDS011;4731;49.708;10.816;2023-09-08T05:16:39;0.23;;;0.23;;
9382;SDS011;4731;49.708;10.816;2023-09-08T05:19:11;0.10;;;0.10;;
9382;SDS011;4731;49.708;10.816;2023-09-08T05:21:38;0.20;;;0.20;;
9382;SDS011;4731;49.708;10.816;2023-09-08T05:24:06;0.20;;;0.20;;
9382;SDS011;4731;49.708;10.816;2023-09-08T05:26:36;0.10;;;0.10;;
9382;SDS011;4731;49.708;10.816;2023-09-08T05:29:03;0.10;;;0.10;;
9382;SDS011;4731;49.708;10.816;2023-09-08T05:31:30;0.03;;;0.03;;
9382;SDS011;4731;49.708;10.816;2023-09-08T05:33:57;0.20;;;0.20;;
9382;SDS011;4731;49.708;10.816;2023-09-08T05:36:24;0.37;;;0.37;;
9382;SDS011;4731;49.708;10.816;2023-09-08T05:38:50;0.30;;;0.30;;
9382;SDS011;4731;49.708;10.816;2023-09-08T05:41:17;0.70;;;0.30;;
9382;SDS011;4731;49.708;10.816;2023-09-08T05:43:45;0.20;;;0.20;;
9382;SDS011;4731;49.708;10.816;2023-09-08T05:46:12;0.00;;;0.00;;
9382;SDS011;4731;49.708;10.816;2023-09-08T05:48:39;0.27;;;0.27;;
9382;SDS011;4731;49.708;10.816;2023-09-08T05:51:05;0.10;;;0.10;;
9382;SDS011;4731;49.708;10.816;2023-09-08T05:53:32;0.20;;;0.20;;
9382;SDS011;4731;49.708;10.816;2023-09-08T05:56:00;0.10;;;0.10;;
9382;SDS011;4731;49.708;10.816;2023-09-08T05:58:27;0.60;;;0.53;;
9382;SDS011;4731;49.708;10.816;2023-09-08T06:00:55;0.17;;;0.17;;
9382;SDS011;4731;49.708;10.816;2023-09-08T06:03:22;0.20;;;0.20;;
9382;SDS011;4731;49.708;10.816;2023-09-08T06:05:49;0.20;;;0.20;;
9382;SDS011;4731;49.708;10.816;2023-09-08T06:08:16;0.30;;;0.30;;
9382;SDS011;4731;49.708;10.816;2023-09-08T06:10:43;0.50;;;0.50;;
9382;SDS011;4731;49.708;10.816;2023-09-08T06:13:10;0.30;;;0.30;;
9382;SDS011;4731;49.708;10.816;2023-09-08T06:15:36;0.32;;;0.32;;
9382;SDS011;4731;49.708;10.816;2023-09-08T06:18:05;0.40;;;0.40;;
9382;SDS011;4731;49.708;10.816;2023-09-08T06:20:31;0.43;;;0.43;;
9382;SDS011;4731;49.708;10.816;2023-09-08T06:22:57;0.65;;;0.65;;
9382;SDS011;4731;49.708;10.816;2023-09-08T06:25:24;0.55;;;0.55;;
9382;SDS011;4731;49.708;10.816;2023-09-08T06:27:53;1.55;;;0.57;;
9382;SDS011;4731;49.708;10.816;2023-09-08T06:30:20;0.40;;;0.40;;
9382;SDS011;4731;49.708;10.816;2023-09-08T06:32:47;0.40;;;0.40;;
9382;SDS011;4731;49.708;10.816;2023-09-08T06:35:15;0.30;;;0.30;;
9382;SDS011;4731;49.708;10.816;2023-09-08T06:37:41;0.40;;;0.40;;
9382;SDS011;4731;49.708;10.816;2023-09-08T06:40:08;0.35;;;0.35;;
9382;SDS011;4731;49.708;10.816;2023-09-08T06:42:35;1.88;;;0.70;;
9382;SDS011;4731;49.708;10.816;2023-09-08T06:45:02;0.30;;;0.30;;
9382;SDS011;4731;49.708;10.816;2023-09-08T06:47:29;0.40;;;0.40;;
9382;SDS011;4731;49.708;10.816;2023-09-08T06:49:56;0.50;;;0.50;;
9382;SDS011;4731;49.708;10.816;2023-09-08T06:52:24;0.45;;;0.45;;
9382;SDS011;4731;49.708;10.816;2023-09-08T06:54:50;0.60;;;0.60;;
9382;SDS011;4731;49.708;10.816;2023-09-08T06:57:17;0.57;;;0.57;;
9382;SDS011;4731;49.708;10.816;2023-09-08T06:59:45;0.60;;;0.60;;
9382;SDS011;4731;49.708;10.816;2023-09-08T07:02:12;0.60;;;0.60;;
9382;SDS011;4731;49.708;10.816;2023-09-08T07:04:39;0.40;;;0.40;;
9382;SDS011;4731;49.708;10.816;2023-09-08T07:07:06;0.40;;;0.40;;
9382;SDS011;4731;49.708;10.816;2023-09-08T07:09:34;0.77;;;0.77;;
9382;SDS011;4731;49.708;10.816;2023-09-08T07:12:02;0.70;;;0.70;;
9382;SDS011;4731;49.708;10.816;2023-09-08T07:14:29;0.30;;;0.30;;
9382;SDS011;4731;49.708;10.816;2023-09-08T07:16:56;0.52;;;0.52;;
9382;SDS011;4731;49.708;10.816;2023-09-08T07:19:23;0.43;;;0.43;;
9382;SDS011;4731;49.708;10.816;2023-09-08T07:21:51;0.60;;;0.60;;
9382;SDS011;4731;49.708;10.816;2023-09-08T07:24:17;0.75;;;0.75;;
9382;SDS011;4731;49.708;10.816;2023-09-08T07:26:45;0.47;;;0.47;;
9382;SDS011;4731;49.708;10.816;2023-09-08T07:29:12;0.30;;;0.30;;
9382;SDS011;4731;49.708;10.816;2023-09-08T07:31:39;0.82;;;0.82;;
9382;SDS011;4731;49.708;10.816;2023-09-08T07:34:06;0.70;;;0.70;;
9382;SDS011;4731;49.708;10.816;2023-09-08T07:36:33;0.47;;;0.47;;
9382;SDS011;4731;49.708;10.816;2023-09-08T07:39:01;0.55;;;0.55;;
9382;SDS011;4731;49.708;10.816;2023-09-08T07:41:28;0.63;;;0.52;;
9382;SDS011;4731;49.708;10.816;2023-09-08T07:43:57;0.80;;;0.80;;
9382;SDS011;4731;49.708;10.816;2023-09-08T07:46:24;0.40;;;0.40;;
9382;SDS011;4731;49.708;10.816;2023-09-08T07:48:50;0.75;;;0.75;;
9382;SDS011;4731;49.708;10.816;2023-09-08T07:51:17;0.60;;;0.60;;
9382;SDS011;4731;49.708;10.816;2023-09-08T07:53:44;0.68;;;0.68;;
9382;SDS011;4731;49.708;10.816;2023-09-08T07:56:11;0.50;;;0.50;;
9382;SDS011;4731;49.708;10.816;2023-09-08T07:58:37;0.52;;;0.52;;
9382;SDS011;4731;49.708;10.816;2023-09-08T08:01:06;0.85;;;0.60;;
9382;SDS011;4731;49.708;10.816;2023-09-08T08:03:32;0.40;;;0.40;;
9382;SDS011;4731;49.708;10.816;2023-09-08T08:06:00;0.55;;;0.55;;
9382;SDS011;4731;49.708;10.816;2023-09-08T08:08:27;0.75;;;0.75;;
9382;SDS011;4731;49.708;10.816;2023-09-08T08:10:55;5.28;;;1.48;;
9382;SDS011;4731;49.708;10.816;2023-09-08T08:13:22;0.77;;;0.77;;
9382;SDS011;4731;49.708;10.816;2023-09-08T08:15:49;0.82;;;0.82;;
9382;SDS011;4731;49.708;10.816;2023-09-08T08:18:17;0.75;;;0.75;;
9382;SDS011;4731;49.708;10.816;2023-09-08T08:20:44;0.40;;;0.40;;
9382;SDS011;4731;49.708;10.816;2023-09-08T08:23:11;0.60;;;0.60;;
9382;SDS011;4731;49.708;10.816;2023-09-08T08:25:37;0.80;;;0.80;;
9382;SDS011;4731;49.708;10.816;2023-09-08T08:28:04;0.60;;;0.60;;
9382;SDS011;4731;49.708;10.816;2023-09-08T08:30:31;0.60;;;0.60;;
9382;SDS011;4731;49.708;10.816;2023-09-08T08:32:58;1.95;;;1.85;;
9382;SDS011;4731;49.708;10.816;2023-09-08T08:35:27;0.63;;;0.63;;
9382;SDS011;4731;49.708;10.816;2023-09-08T08:37:53;0.90;;;0.90;;
9382;SDS011;4731;49.708;10.816;2023-09-08T08:40:20;0.57;;;0.57;;
9382;SDS011;4731;49.708;10.816;2023-09-08T08:42:51;0.68;;;0.68;;
9382;SDS011;4731;49.708;10.816;2023-09-08T08:45:22;0.70;;;0.70;;
9382;SDS011;4731;49.708;10.816;2023-09-08T08:47:50;0.60;;;0.60;;
9382;SDS011;4731;49.708;10.816;2023-09-08T08:50:17;0.50;;;0.50;;
9382;SDS011;4731;49.708;10.816;2023-09-08T08:52:46;0.70;;;0.70;;
9382;SDS011;4731;49.708;10.816;2023-09-08T08:55:13;0.45;;;0.45;;
9382;SDS011;4731;49.708;10.816;2023-09-08T08:57:40;0.85;;;0.85;;
9382;SDS011;4731;49.708;10.816;2023-09-08T09:00:08;0.80;;;0.80;;
9382;SDS011;4731;49.708;10.816;2023-09-08T09:02:37;0.68;;;0.68;;
9382;SDS011;4731;49.708;10.816;2023-09-08T09:05:06;0.50;;;0.50;;
9382;SDS011;4731;49.708;10.816;2023-09-08T09:07:34;0.70;;;0.70;;
9382;SDS011;4731;49.708;10.816;2023-09-08T09:10:04;0.55;;;0.55;;
9382;SDS011;4731;49.708;10.816;2023-09-08T09:12:32;0.70;;;0.70;;
9382;SDS011;4731;49.708;10.816;2023-09-08T09:14:59;0.70;;;0.70;;
9382;SDS011;4731;49.708;10.816;2023-09-08T09:17:27;0.95;;;0.95;;
9382;SDS011;4731;49.708;10.816;2023-09-08T09:20:03;0.68;;;0.68;;
9382;SDS011;4731;49.708;10.816;2023-09-08T09:22:39;1.17;;;1.05;;
9382;SDS011;4731;49.708;10.816;2023-09-08T09:25:07;0.60;;;0.60;;
9382;SDS011;4731;49.708;10.816;2023-09-08T09:27:35;0.40;;;0.40;;
9382;SDS011;4731;49.708;10.816;2023-09-08T09:30:06;0.65;;;0.65;;
9382;SDS011;4731;49.708;10.816;2023-09-08T09:32:33;0.90;;;0.90;;
9382;SDS011;4731;49.708;10.816;2023-09-08T09:35:01;0.70;;;0.70;;
9382;SDS011;4731;49.708;10.816;2023-09-08T09:37:28;0.57;;;0.57;;
9382;SDS011;4731;49.708;10.816;2023-09-08T09:39:56;0.70;;;0.70;;
9382;SDS011;4731;49.708;10.816;2023-09-08T09:42:24;0.85;;;0.85;;
9382;SDS011;4731;49.708;10.816;2023-09-08T09:44:54;0.85;;;0.85;;
9382;SDS011;4731;49.708;10.816;2023-09-08T09:47:20;0.95;;;0.95;;
9382;SDS011;4731;49.708;10.816;2023-09-08T09:49:48;0.90;;;0.90;;
9382;SDS011;4731;49.708;10.816;2023-09-08T09:52:19;0.90;;;0.90;;
9382;SDS011;4731;49.708;10.816;2023-09-08T09:54:47;0.88;;;0.88;;
9382;SDS011;4731;49.708;10.816;2023-09-08T09:57:17;1.00;;;1.00;;
9382;SDS011;4731;49.708;10.816;2023-09-08T09:59:48;0.85;;;0.85;;
9382;SDS011;4731;49.708;10.816;2023-09-08T10:02:16;0.80;;;0.80;;
9382;SDS011;4731;49.708;10.816;2023-09-08T10:04:45;0.93;;;0.93;;
9382;SDS011;4731;49.708;10.816;2023-09-08T10:07:14;0.70;;;0.70;;
9382;SDS011;4731;49.708;10.816;2023-09-08T10:09:42;0.82;;;0.82;;
9382;SDS011;4731;49.708;10.816;2023-09-08T10:12:09;0.80;;;0.80;;
9382;SDS011;4731;49.708;10.816;2023-09-08T10:14:40;0.65;;;0.65;;
9382;SDS011;4731;49.708;10.816;2023-09-08T10:17:11;0.65;;;0.65;;
9382;SDS011;4731;49.708;10.816;2023-09-08T10:19:42;0.95;;;0.95;;
9382;SDS011;4731;49.708;10.816;2023-09-08T10:22:14;0.70;;;0.70;;
9382;SDS011;4731;49.708;10.816;2023-09-08T10:24:45;0.82;;;0.82;;
9382;SDS011;4731;49.708;10.816;2023-09-08T10:27:14;1.02;;;1.02;;
9382;SDS011;4731;49.708;10.816;2023-09-08T10:29:44;0.50;;;0.50;;
9382;SDS011;4731;49.708;10.816;2023-09-08T10:32:13;0.63;;;0.63;;
9382;SDS011;4731;49.708;10.816;2023-09-08T10:34:40;0.50;;;0.50;;
9382;SDS011;4731;49.708;10.816;2023-09-08T10:37:18;0.75;;;0.75;;
9382;SDS011;4731;49.708;10.816;2023-09-08T10:39:45;0.80;;;0.80;;
9382;SDS011;4731;49.708;10.816;2023-09-08T10:42:22;0.50;;;0.50;;
9382;SDS011;4731;49.708;10.816;2023-09-08T10:44:55;0.70;;;0.70;;
9382;SDS011;4731;49.708;10.816;2023-09-08T10:47:35;0.90;;;0.90;;
9382;SDS011;4731;49.708;10.816;2023-09-08T10:50:25;0.60;;;0.60;;
9382;SDS011;4731;49.708;10.816;2023-09-08T10:53:05;0.60;;;0.60;;
9382;SDS011;4731;49.708;10.816;2023-09-08T10:55:42;0.60;;;0.60;;
9382;SDS011;4731;49.708;10.816;2023-09-08T10:58:18;0.80;;;0.80;;
9382;SDS011;4731;49.708;10.816;2023-09-08T11:00:47;0.98;;;0.98;;
9382;SDS011;4731;49.708;10.816;2023-09-08T11:03:26;2.28;;;1.05;;
9382;SDS011;4731;49.708;10.816;2023-09-08T11:05:54;0.70;;;0.70;;
9382;SDS011;4731;49.708;10.816;2023-09-08T11:08:23;0.85;;;0.85;;
9382;SDS011;4731;49.708;10.816;2023-09-08T11:10:50;0.85;;;0.85;;
9382;SDS011;4731;49.708;10.816;2023-09-08T11:13:17;0.70;;;0.70;;
9382;SDS011;4731;49.708;10.816;2023-09-08T11:15:44;0.93;;;0.93;;
9382;SDS011;4731;49.708;10.816;2023-09-08T11:18:10;1.08;;;1.08;;
9382;SDS011;4731;49.708;10.816;2023-09-08T11:20:39;1.10;;;1.10;;
9382;SDS011;4731;49.708;10.816;2023-09-08T11:23:06;0.88;;;0.88;;
9382;SDS011;4731;49.708;10.816;2023-09-08T11:25:32;0.93;;;0.93;;
9382;SDS011;4731;49.708;10.816;2023-09-08T11:28:00;0.93;;;0.93;;
9382;SDS011;4731;49.708;10.816;2023-09-08T11:30:27;1.42;;;1.35;;
9382;SDS011;4731;49.708;10.816;2023-09-08T11:32:54;1.08;;;1.08;;
9382;SDS011;4731;49.708;10.816;2023-09-08T11:35:24;0.98;;;0.98;;
9382;SDS011;4731;49.708;10.816;2023-09-08T11:37:58;0.70;;;0.70;;
9382;SDS011;4731;49.708;10.816;2023-09-08T11:40:26;0.70;;;0.70;;
9382;SDS011;4731;49.708;10.816;2023-09-08T11:42:53;1.60;;;1.60;;
9382;SDS011;4731;49.708;10.816;2023-09-08T11:45:20;0.90;;;0.90;;
9382;SDS011;4731;49.708;10.816;2023-09-08T11:47:48;1.17;;;1.17;;
9382;SDS011;4731;49.708;10.816;2023-09-08T11:50:15;0.75;;;0.75;;
9382;SDS011;4731;49.708;10.816;2023-09-08T11:52:45;0.70;;;0.70;;
9382;SDS011;4731;49.708;10.816;2023-09-08T11:55:15;1.00;;;1.00;;
9382;SDS011;4731;49.708;10.816;2023-09-08T11:57:42;1.38;;;1.27;;
9382;SDS011;4731;49.708;10.816;2023-09-08T12:00:11;0.90;;;0.90;;
9382;SDS011;4731;49.708;10.816;2023-09-08T12:02:42;0.60;;;0.60;;
9382;SDS011;4731;49.708;10.816;2023-09-08T12:05:13;0.85;;;0.85;;
9382;SDS011;4731;49.708;10.816;2023-09-08T12:07:40;0.60;;;0.60;;
9382;SDS011;4731;49.708;10.816;2023-09-08T12:10:08;1.75;;;1.10;;
9382;SDS011;4731;49.708;10.816;2023-09-08T12:12:42;0.90;;;0.90;;
9382;SDS011;4731;49.708;10.816;2023-09-08T12:15:10;0.82;;;0.82;;
9382;SDS011;4731;49.708;10.816;2023-09-08T12:17:46;0.82;;;0.82;;
9382;SDS011;4731;49.708;10.816;2023-09-08T12:20:14;0.90;;;0.90;;
9382;SDS011;4731;49.708;10.816;2023-09-08T12:22:47;1.10;;;1.10;;
9382;SDS011;4731;49.708;10.816;2023-09-08T12:25:15;0.88;;;0.88;;
9382;SDS011;4731;49.708;10.816;2023-09-08T12:27:44;1.55;;;1.17;;
9382;SDS011;4731;49.708;10.816;2023-09-08T12:30:16;1.00;;;1.00;;
9382;SDS011;4731;49.708;10.816;2023-09-08T12:32:44;0.70;;;0.70;;
9382;SDS011;4731;49.708;10.816;2023-09-08T12:35:12;0.70;;;0.70;;
9382;SDS011;4731;49.708;10.816;2023-09-08T12:37:39;0.90;;;0.90;;
9382;SDS011;4731;49.708;10.816;2023-09-08T12:40:07;0.60;;;0.60;;
9382;SDS011;4731;49.708;10.816;2023-09-08T12:42:34;0.63;;;0.63;;
9382;SDS011;4731;49.708;10.816;2023-09-08T12:45:03;0.65;;;0.65;;
9382;SDS011;4731;49.708;10.816;2023-09-08T12:47:31;0.60;;;0.60;;
9382;SDS011;4731;49.708;10.816;2023-09-08T12:49:57;0.60;;;0.60;;
9382;SDS011;4731;49.708;10.816;2023-09-08T12:52:25;0.50;;;0.50;;
9382;SDS011;4731;49.708;10.816;2023-09-08T12:54:51;1.15;;;1.15;;
9382;SDS011;4731;49.708;10.816;2023-09-08T12:57:18;0.60;;;0.60;;
9382;SDS011;4731;49.708;10.816;2023-09-08T12:59:45;0.85;;;0.85;;
9382;SDS011;4731;49.708;10.816;2023-09-08T13:02:13;1.08;;;1.08;;
9382;SDS011;4731;49.708;10.816;2023-09-08T13:04:40;0.70;;;0.70;;
9382;SDS011;4731;49.708;10.816;2023-09-08T13:07:07;1.10;;;1.10;;
9382;SDS011;4731;49.708;10.816;2023-09-08T13:09:33;0.90;;;0.90;;
9382;SDS011;4731;49.708;10.816;2023-09-08T13:12:00;1.10;;;1.10;;
9382;SDS011;4731;49.708;10.816;2023-09-08T13:14:27;1.20;;;1.20;;
9382;SDS011;4731;49.708;10.816;2023-09-08T13:16:53;0.70;;;0.70;;
9382;SDS011;4731;49.708;10.816;2023-09-08T13:19:22;0.82;;;0.82;;
9382;SDS011;4731;49.708;10.816;2023-09-08T13:21:48;0.70;;;0.70;;
9382;SDS011;4731;49.708;10.816;2023-09-08T13:24:15;0.93;;;0.93;;
9382;SDS011;4731;49.708;10.816;2023-09-08T13:26:42;1.02;;;1.02;;
9382;SDS011;4731;49.708;10.816;2023-09-08T13:29:08;0.85;;;0.85;;
9382;SDS011;4731;49.708;10.816;2023-09-08T13:31:35;0.90;;;0.90;;
9382;SDS011;4731;49.708;10.816;2023-09-08T13:34:02;0.73;;;0.73;;
9382;SDS011;4731;49.708;10.816;2023-09-08T13:36:30;0.80;;;0.80;;
9382;SDS011;4731;49.708;10.816;2023-09-08T13:38:56;0.90;;;0.90;;
9382;SDS011;4731;49.708;10.816;2023-09-08T13:41:23;0.77;;;0.77;;
9382;SDS011;4731;49.708;10.816;2023-09-08T13:43:50;1.00;;;1.00;;
9382;SDS011;4731;49.708;10.816;2023-09-08T13:46:17;0.90;;;0.90;;
9382;SDS011;4731;49.708;10.816;2023-09-08T13:48:44;0.70;;;0.70;;
9382;SDS011;4731;49.708;10.816;2023-09-08T13:51:10;0.63;;;0.63;;
9382;SDS011;4731;49.708;10.816;2023-09-08T13:53:39;0.80;;;0.80;;
9382;SDS011;4731;49.708;10.816;2023-09-08T13:56:05;0.50;;;0.50;;
9382;SDS011;4731;49.708;10.816;2023-09-08T13:58:32;0.70;;;0.70;;
9382;SDS011;4731;49.708;10.816;2023-09-08T14:00:59;0.70;;;0.70;;
9382;SDS011;4731;49.708;10.816;2023-09-08T14:03:25;0.57;;;0.57;;
9382;SDS011;4731;49.708;10.816;2023-09-08T14:05:52;0.70;;;0.70;;
9382;SDS011;4731;49.708;10.816;2023-09-08T14:08:19;0.50;;;0.50;;
9382;SDS011;4731;49.708;10.816;2023-09-08T14:10:47;0.50;;;0.50;;
9382;SDS011;4731;49.708;10.816;2023-09-08T14:13:14;0.50;;;0.50;;
9382;SDS011;4731;49.708;10.816;2023-09-08T14:15:40;0.40;;;0.40;;
9382;SDS011;4731;49.708;10.816;2023-09-08T14:18:07;0.57;;;0.55;;
9382;SDS011;4731;49.708;10.816;2023-09-08T14:20:35;0.57;;;0.57;;
9382;SDS011;4731;49.708;10.816;2023-09-08T14:23:02;0.65;;;0.65;;
9382;SDS011;4731;49.708;10.816;2023-09-08T14:25:28;0.57;;;0.57;;
9382;SDS011;4731;49.708;10.816;2023-09-08T14:27:57;0.85;;;0.85;;
9382;SDS011;4731;49.708;10.816;2023-09-08T14:30:23;0.40;;;0.40;;
9382;SDS011;4731;49.708;10.816;2023-09-08T14:32:50;0.40;;;0.40;;
9382;SDS011;4731;49.708;10.816;2023-09-08T14:35:17;0.60;;;0.60;;
9382;SDS011;4731;49.708;10.816;2023-09-08T14:37:45;0.50;;;0.50;;
9382;SDS011;4731;49.708;10.816;2023-09-08T14:40:12;0.40;;;0.40;;
9382;SDS011;4731;49.708;10.816;2023-09-08T14:42:39;0.30;;;0.30;;
9382;SDS011;4731;49.708;10.816;2023-09-08T14:45:08;0.60;;;0.60;;
9382;SDS011;4731;49.708;10.816;2023-09-08T14:47:35;0.40;;;0.40;;
9382;SDS011;4731;49.708;10.816;2023-09-08T14:50:02;0.38;;;0.38;;
9382;SDS011;4731;49.708;10.816;2023-09-08T14:52:30;0.25;;;0.25;;
9382;SDS011;4731;49.708;10.816;2023-09-08T14:54:57;0.38;;;0.38;;
9382;SDS011;4731;49.708;10.816;2023-09-08T14:57:23;0.50;;;0.50;;
9382;SDS011;4731;49.708;10.816;2023-09-08T14:59:54;0.30;;;0.30;;
9382;SDS011;4731;49.708;10.816;2023-09-08T15:02:23;1.05;;;1.00;;
9382;SDS011;4731;49.708;10.816;2023-09-08T15:04:50;0.50;;;0.50;;